Time;durP1;ratioP1;P1;durP2;ratioP2;P2;SDS_P1;SDS_P2;PMS_P1;PMS_P2;Temp;Humidity;BMP_temperature;BMP_pressure;BME280_temperature;BME280_humidity;BME280_pressure;Samples;Min_cycle;Max_cycle;Signal;HPM_P1;HPM_P2
2022/04/22 00:00:23;;;;;;;3.87;2.80;;;;;;;9.09;86.00;100794.38;5024434;28;20331;-55
2022/04/22 00:02:50;;;;;;;4.73;3.07;;;;;;;9.05;86.42;100806.53;5025773;28;20233;-53
2022/04/22 00:05:17;;;;;;;3.13;2.53;;;;;;;8.98;86.47;100791.66;5024775;28;20256;-53
2022/04/22 00:07:43;;;;;;;4.53;2.77;;;;;;;8.94;87.12;100797.75;5025199;28;20605;-54
2022/04/22 00:10:11;;;;;;;3.27;2.30;;;;;;;8.92;87.02;100791.63;5024625;28;20236;-53
2022/04/22 00:12:37;;;;;;;3.87;2.60;;;;;;;8.89;87.27;100796.84;5025308;28;20702;-55
2022/04/22 00:15:07;;;;;;;3.30;2.57;;;;;;;8.82;86.94;100792.44;5029541;28;20220;-54
2022/04/22 00:17:33;;;;;;;4.43;2.40;;;;;;;8.75;87.60;100794.13;5024622;28;20232;-53
2022/04/22 00:19:59;;;;;;;2.37;2.23;;;;;;;8.76;87.42;100789.75;5024605;28;20294;-53
2022/04/22 00:22:26;;;;;;;3.03;2.50;;;;;;;8.71;87.78;100791.47;5005459;28;20240;-54
2022/04/22 00:24:53;;;;;;;6.33;2.47;;;;;;;8.67;88.03;100797.53;5011696;28;20233;-53
2022/04/22 00:27:20;;;;;;;3.47;2.70;;;;;;;8.65;90.44;100802.78;5025549;28;20248;-53
2022/04/22 00:29:46;;;;;;;5.20;3.40;;;;;;;8.45;89.51;100796.50;5023967;28;20228;-54
2022/04/22 00:32:14;;;;;;;4.43;3.97;;;;;;;8.47;90.18;100795.66;5024812;28;20294;-53
2022/04/22 00:34:41;;;;;;;4.10;2.53;;;;;;;8.55;91.27;100790.47;5024793;28;20240;-53
2022/04/22 00:37:07;;;;;;;3.33;2.60;;;;;;;8.54;91.35;100789.59;5025913;28;20239;-53
2022/04/22 00:39:33;;;;;;;4.17;2.83;;;;;;;8.51;90.83;100788.69;5028554;28;20855;-54
2022/04/22 00:42:07;;;;;;;4.40;3.00;;;;;;;8.51;90.14;100779.09;5029492;28;20232;-52
2022/04/22 00:44:33;;;;;;;3.73;3.27;;;;;;;8.46;90.10;100786.06;5030007;28;20657;-53
2022/04/22 00:47:00;;;;;;;3.97;3.10;;;;;;;8.37;90.47;100778.09;5029683;28;20244;-54
2022/04/22 00:49:27;;;;;;;3.23;2.93;;;;;;;8.28;91.24;100775.38;5027777;28;20240;-54
2022/04/22 00:51:54;;;;;;;4.53;2.87;;;;;;;8.36;93.41;100778.94;5023804;28;20233;-53
2022/04/22 00:54:20;;;;;;;5.00;3.13;;;;;;;8.34;92.63;100780.66;5028553;28;20244;-53
2022/04/22 00:56:47;;;;;;;3.83;3.43;;;;;;;8.20;92.79;100777.06;5008913;28;20311;-54
2022/04/22 00:59:13;;;;;;;3.17;2.67;;;;;;;8.16;92.40;100777.88;5007937;28;20234;-53
2022/04/22 01:01:40;;;;;;;5.80;3.17;;;;;;;8.08;92.01;100769.97;5008518;28;20674;-57
2022/04/22 01:09:49;;;;;;;5.00;3.03;;;;;;;7.84;93.20;100763.63;5031111;28;20247;-54
2022/04/22 01:12:16;;;;;;;5.03;3.63;;;;;;;7.71;93.92;100761.75;5029102;28;20243;-54
2022/04/22 01:14:42;;;;;;;5.97;3.60;;;;;;;7.74;94.40;100753.94;5028011;28;20741;-54
2022/04/22 01:17:09;;;;;;;4.03;3.63;;;;;;;7.69;94.27;100765.19;5028599;28;20233;-54
2022/04/22 01:19:36;;;;;;;4.90;3.87;;;;;;;7.63;94.62;100761.66;5027878;28;20244;-54
2022/04/22 01:22:05;;;;;;;6.87;4.10;;;;;;;7.62;95.76;100757.31;5028190;28;20286;-56
2022/04/22 01:24:31;;;;;;;4.73;3.50;;;;;;;7.61;95.60;100762.50;5027808;28;20239;-54
2022/04/22 01:26:58;;;;;;;7.37;3.73;;;;;;;7.73;97.74;100760.03;5028045;28;20320;-54
2022/04/22 01:29:25;;;;;;;6.90;3.53;;;;;;;7.64;97.82;100771.25;5027645;28;20636;-54
2022/04/22 01:31:52;;;;;;;8.87;4.17;;;;;;;7.65;98.25;100770.41;5028110;28;20634;-54
2022/04/22 01:34:18;;;;;;;6.67;3.87;;;;;;;7.54;97.05;100761.53;5028071;28;20236;-53
2022/04/22 01:36:45;;;;;;;5.23;4.27;;;;;;;7.48;98.95;100760.63;5027595;28;20302;-53
2022/04/22 01:39:12;;;;;;;8.33;4.67;;;;;;;7.49;97.47;100754.53;5027593;28;20240;-54
2022/04/22 01:41:39;;;;;;;5.40;3.80;;;;;;;7.44;97.51;100751.88;5028508;28;20236;-54
2022/04/22 01:44:05;;;;;;;5.27;4.10;;;;;;;7.67;100.00;100748.63;5027860;28;20286;-54
2022/04/22 01:46:32;;;;;;;6.43;4.70;;;;;;;7.62;99.39;100751.19;5028041;28;20244;-54
2022/04/22 01:48:58;;;;;;;9.43;4.93;;;;;;;7.46;99.30;100739.69;5025814;28;20279;-54
2022/04/22 01:51:25;;;;;;;7.03;5.07;;;;;;;7.23;100.00;100748.97;5020489;28;20233;-54
2022/04/22 01:53:51;;;;;;;8.67;4.43;;;;;;;7.33;100.00;100743.00;5008525;28;20287;-54
2022/04/22 01:56:19;;;;;;;8.97;5.07;;;;;;;7.33;100.00;100740.38;5028051;28;20326;-54
2022/04/22 01:58:46;;;;;;;5.97;5.30;;;;;;;7.22;100.00;100739.38;5027487;28;20236;-54
2022/04/22 02:01:12;;;;;;;6.87;5.30;;;;;;;7.30;100.00;100737.72;5027385;28;20252;-54
2022/04/22 02:03:38;;;;;;;7.00;4.63;;;;;;;7.29;100.00;100739.47;5025256;28;20599;-54
2022/04/22 02:06:05;;;;;;;8.63;5.03;;;;;;;7.35;100.00;100736.06;5027172;28;20290;-54
2022/04/22 02:08:32;;;;;;;8.37;5.47;;;;;;;7.28;100.00;100722.06;5026532;28;20259;-54
2022/04/22 02:10:59;;;;;;;8.77;5.07;;;;;;;7.26;99.41;100720.28;5027809;28;20243;-53
2022/04/22 02:13:26;;;;;;;7.37;5.43;;;;;;;7.21;99.83;100716.75;5027268;28;20233;-52
2022/04/22 02:15:53;;;;;;;10.63;5.43;;;;;;;7.08;99.46;100713.97;5023489;28;20653;-52
2022/04/22 02:18:19;;;;;;;7.43;5.40;;;;;;;7.09;100.00;100712.22;5027137;28;20573;-53
2022/04/22 02:20:45;;;;;;;7.87;5.07;;;;;;;7.03;100.00;100713.06;5027512;28;20274;-53
2022/04/22 02:23:13;;;;;;;6.63;4.90;;;;;;;6.99;100.00;100711.25;5013259;28;20238;-54
2022/04/22 02:25:39;;;;;;;14.23;5.30;;;;;;;6.90;100.00;100711.13;5007738;28;20594;-53
2022/04/22 02:30:50;;;;;;;7.40;4.80;;;;;;;6.78;100.00;100705.75;5027856;28;20314;-53
2022/04/22 02:33:17;;;;;;;7.53;5.63;;;;;;;6.68;100.00;100702.13;5025776;28;20287;-54
2022/04/22 02:35:43;;;;;;;10.63;5.70;;;;;;;6.69;100.00;100703.88;5027129;28;20236;-54
2022/04/22 02:38:10;;;;;;;5.23;4.70;;;;;;;6.73;100.00;100699.56;5026155;28;20236;-53
2022/04/22 02:46:05;;;;;;;11.67;4.77;;;;;;;6.82;100.00;100702.31;5025915;28;20258;-52
2022/04/22 02:48:32;;;;;;;9.10;4.90;;;;;;;6.71;100.00;100691.75;5016793;28;20750;-52
2022/04/22 02:50:58;;;;;;;8.13;5.30;;;;;;;6.71;100.00;100690.88;5027065;28;20258;-53
2022/04/22 02:53:25;;;;;;;9.00;5.10;;;;;;;6.72;100.00;100695.22;5026794;28;20236;-55
2022/04/22 02:55:52;;;;;;;7.70;5.27;;;;;;;6.68;100.00;100689.97;5027208;28;20259;-53
2022/04/22 02:58:19;;;;;;;8.03;6.23;;;;;;;6.68;100.00;100687.34;5022129;28;20229;-53
2022/04/22 03:00:45;;;;;;;10.90;5.50;;;;;;;6.73;100.00;100690.00;5011231;28;20230;-53
2022/04/22 03:03:13;;;;;;;8.30;5.43;;;;;;;6.89;100.00;100693.72;5007902;28;20773;-53
2022/04/22 03:05:40;;;;;;;9.87;5.17;;;;;;;6.85;100.00;100687.59;5026501;28;20684;-53
2022/04/22 03:08:08;;;;;;;7.60;5.40;;;;;;;6.83;100.00;100694.50;5026040;28;20639;-52
2022/04/22 03:10:34;;;;;;;7.50;5.40;;;;;;;6.88;100.00;100697.16;5025530;28;20780;-54
2022/04/22 03:13:01;;;;;;;6.70;5.43;;;;;;;6.86;100.00;100691.06;5026161;28;20240;-53
2022/04/22 03:15:27;;;;;;;8.30;6.43;;;;;;;6.77;100.00;100693.53;5025980;28;20272;-53
2022/04/22 03:17:53;;;;;;;7.00;4.57;;;;;;;6.79;100.00;100697.06;5025376;28;20761;-53
2022/04/22 03:20:21;;;;;;;7.93;4.77;;;;;;;6.82;100.00;100677.09;5025699;28;20722;-52
2022/04/22 03:22:48;;;;;;;9.57;5.53;;;;;;;6.74;100.00;100680.44;5026303;28;20307;-53
2022/04/22 03:25:16;;;;;;;6.40;5.27;;;;;;;6.64;100.00;100675.13;5025374;28;20236;-53
2022/04/22 03:27:42;;;;;;;10.07;6.10;;;;;;;6.74;100.00;100676.13;5025035;28;20734;-53
2022/04/22 03:30:09;;;;;;;7.00;4.80;;;;;;;6.65;100.00;100678.59;5024420;28;20260;-53
2022/04/22 03:32:35;;;;;;;8.87;6.47;;;;;;;6.55;100.00;100667.16;5025937;28;20291;-53
2022/04/22 03:35:02;;;;;;;8.40;5.63;;;;;;;6.63;100.00;100681.22;5024553;28;20236;-53
2022/04/22 03:37:29;;;;;;;7.57;5.00;;;;;;;6.60;100.00;100675.03;5024823;28;20282;-53
2022/04/22 03:39:56;;;;;;;7.63;4.83;;;;;;;6.58;100.00;100676.75;5024924;28;20236;-54
2022/04/22 03:42:22;;;;;;;6.60;5.17;;;;;;;6.71;100.00;100672.59;5023225;28;20282;-52
2022/04/22 03:44:49;;;;;;;6.80;5.20;;;;;;;6.59;100.00;100663.72;5024288;28;20225;-53
2022/04/22 03:47:15;;;;;;;7.23;5.30;;;;;;;6.55;100.00;100667.16;5005294;28;20233;-53
2022/04/22 03:49:42;;;;;;;8.33;5.37;;;;;;;6.45;100.00;100666.13;5010353;28;20243;-54
2022/04/22 03:52:08;;;;;;;10.53;5.77;;;;;;;6.48;100.00;100664.44;5024692;28;20229;-53
2022/04/22 03:54:36;;;;;;;5.57;5.07;;;;;;;6.46;100.00;100656.63;5023730;28;20236;-52
2022/04/22 03:59:47;;;;;;;7.10;5.50;;;;;;;6.43;100.00;100661.78;5003820;28;20710;-54
2022/04/22 04:02:13;;;;;;;13.60;6.30;;;;;;;6.48;100.00;100656.63;5013565;28;20297;-54
2022/04/22 04:04:40;;;;;;;10.63;6.33;;;;;;;6.54;100.00;100659.31;5026166;28;20236;-55
2022/04/22 04:07:06;;;;;;;10.53;6.20;;;;;;;6.55;100.00;100661.94;5025529;28;20310;-53
2022/04/22 04:17:46;;;;;;;8.07;6.00;;;;;;;6.52;100.00;100664.50;5022332;28;20657;-53
2022/04/22 04:25:41;;;;;;;9.83;6.87;;;;;;;6.67;100.00;100656.91;5025434;28;20780;-53
2022/04/22 04:28:09;;;;;;;7.73;5.40;;;;;;;6.75;100.00;100653.53;5025291;28;20286;-54
2022/04/22 04:30:36;;;;;;;7.77;6.40;;;;;;;6.54;100.00;100660.19;5025069;28;20255;-54
2022/04/22 04:33:03;;;;;;;6.77;5.73;;;;;;;6.51;100.00;100660.16;5024900;28;20255;-53
2022/04/22 04:35:29;;;;;;;10.63;5.57;;;;;;;6.68;100.00;100676.91;5025355;28;20239;-53
2022/04/22 04:37:55;;;;;;;7.23;5.23;;;;;;;6.72;100.00;100679.56;5019531;28;20236;-53
2022/04/22 04:40:22;;;;;;;7.90;6.50;;;;;;;6.67;100.00;100675.16;5024584;28;20691;-52
2022/04/22 04:42:48;;;;;;;7.80;6.70;;;;;;;6.59;100.00;100674.16;5025632;28;20275;-53
2022/04/22 04:45:17;;;;;;;8.17;6.50;;;;;;;6.55;100.00;100672.38;5024960;28;20277;-54
2022/04/22 04:47:43;;;;;;;7.40;5.67;;;;;;;6.55;100.00;100671.50;5025127;28;20251;-52
2022/04/22 04:50:11;;;;;;;8.53;6.63;;;;;;;6.49;100.00;100667.06;5023990;28;20232;-53
2022/04/22 04:52:37;;;;;;;11.47;6.57;;;;;;;6.44;100.00;100669.59;5025025;28;20236;-53
2022/04/22 04:55:05;;;;;;;6.87;6.17;;;;;;;6.47;100.00;100658.34;5024433;28;20235;-54
2022/04/22 04:57:31;;;;;;;13.53;7.17;;;;;;;6.53;100.00;100674.09;5025373;28;20306;-53
2022/04/22 04:59:58;;;;;;;7.00;5.80;;;;;;;6.69;100.00;100670.84;5024346;28;20461;-53
2022/04/22 05:02:25;;;;;;;9.03;7.17;;;;;;;6.63;100.00;100670.78;5024620;28;20695;-53
2022/04/22 05:04:52;;;;;;;9.67;6.50;;;;;;;6.59;100.00;100668.94;5025498;28;20282;-53
2022/04/22 05:07:19;;;;;;;9.80;7.80;;;;;;;6.68;100.00;100678.66;5024965;28;20548;-53
2022/04/22 05:09:46;;;;;;;8.00;6.80;;;;;;;6.69;100.00;100681.25;5023970;28;20706;-54
2022/04/22 05:12:12;;;;;;;9.37;7.07;;;;;;;6.75;100.00;100674.41;5025067;28;20255;-53
2022/04/22 05:14:39;;;;;;;14.57;7.97;;;;;;;6.82;100.00;100681.44;5024774;28;20742;-53
2022/04/22 05:17:05;;;;;;;13.50;7.03;;;;;;;6.81;100.00;100680.59;5025057;28;20797;-53
2022/04/22 05:19:33;;;;;;;14.73;7.87;;;;;;;6.79;100.00;100684.00;5024062;28;20229;-54
2022/04/22 05:22:00;;;;;;;8.37;6.07;;;;;;;6.87;100.00;100677.16;5024347;28;20287;-53
2022/04/22 05:24:26;;;;;;;11.73;6.27;;;;;;;6.85;100.00;100676.28;5026413;28;20240;-54
2022/04/22 05:26:52;;;;;;;8.70;6.03;;;;;;;6.92;100.00;100678.97;5028542;28;20598;-53
2022/04/22 05:34:48;;;;;;;9.60;6.67;;;;;;;7.05;100.00;100663.47;5025720;28;20611;-53
2022/04/22 05:37:15;;;;;;;10.73;7.50;;;;;;;7.07;100.00;100661.75;5014748;28;20292;-54
2022/04/22 05:39:43;;;;;;;13.03;7.17;;;;;;;7.43;100.00;100669.13;5007735;28;20237;-54
2022/04/22 05:42:09;;;;;;;10.30;6.73;;;;;;;7.43;100.00;100673.47;5010498;28;20237;-54
2022/04/22 05:44:36;;;;;;;9.77;6.63;;;;;;;7.39;100.00;100670.81;5028399;28;20252;-53
2022/04/22 05:47:03;;;;;;;7.47;6.23;;;;;;;7.47;100.00;100672.63;5024244;28;20225;-52
2022/04/22 05:49:29;;;;;;;10.70;7.23;;;;;;;7.50;100.00;100673.53;5008008;28;20253;-52
2022/04/22 05:51:57;;;;;;;9.33;7.53;;;;;;;7.45;100.00;100661.31;5012821;28;20237;-55
2022/04/22 05:54:23;;;;;;;8.70;7.13;;;;;;;7.46;100.00;100671.75;5009256;28;20235;-53
2022/04/22 05:56:50;;;;;;;9.00;6.27;;;;;;;7.45;100.00;100670.03;5023553;28;20274;-53
2022/04/22 05:59:16;;;;;;;7.77;6.97;;;;;;;7.49;100.00;100656.13;5026083;28;20236;-53
2022/04/22 06:01:42;;;;;;;14.97;7.67;;;;;;;7.71;100.00;100657.22;5027475;28;20268;-53
2022/04/22 06:04:09;;;;;;;10.20;5.97;;;;;;;7.83;100.00;100652.09;5027949;28;20267;-57
2022/04/22 06:06:35;;;;;;;10.07;7.70;;;;;;;7.78;100.00;100658.16;5028006;28;20236;-53
2022/04/22 06:11:47;;;;;;;14.53;7.73;;;;;;;7.77;99.14;100659.00;5027924;28;20314;-53
2022/04/22 06:14:13;;;;;;;11.77;7.30;;;;;;;7.87;99.91;100666.06;5026212;28;20240;-54
2022/04/22 06:16:41;;;;;;;12.20;7.00;;;;;;;7.94;100.00;100662.66;5026785;28;20236;-53
2022/04/22 06:19:07;;;;;;;12.43;7.37;;;;;;;8.04;99.27;100656.66;5026745;28;20229;-54
2022/04/22 06:21:33;;;;;;;10.33;7.57;;;;;;;8.01;98.64;100654.00;5026938;28;20325;-53
2022/04/22 06:24:00;;;;;;;6.77;6.07;;;;;;;8.02;98.96;100647.91;5026720;28;20287;-53
2022/04/22 06:26:27;;;;;;;7.60;6.70;;;;;;;8.02;98.63;100632.22;5026641;28;20248;-53
2022/04/22 06:28:54;;;;;;;8.67;6.83;;;;;;;8.11;98.77;100626.19;5025498;28;20232;-54
2022/04/22 06:31:21;;;;;;;9.80;6.87;;;;;;;8.11;98.42;100642.75;5027214;28;20282;-53
2022/04/22 06:33:47;;;;;;;8.63;6.37;;;;;;;8.16;98.28;100649.75;5024565;28;20302;-53
2022/04/22 06:36:14;;;;;;;7.73;6.40;;;;;;;8.32;97.98;100651.63;5027229;28;20268;-53
2022/04/22 06:38:41;;;;;;;9.93;7.03;;;;;;;8.24;96.72;100659.38;5026062;28;20319;-52
2022/04/22 06:46:50;;;;;;;9.13;6.83;;;;;;;8.83;95.45;100666.75;5019570;28;20242;-55
2022/04/22 06:49:16;;;;;;;9.43;7.87;;;;;;;8.92;92.30;100672.94;5025389;28;20545;-52
2022/04/22 06:51:43;;;;;;;12.17;7.40;;;;;;;9.14;92.96;100668.66;5026913;28;20237;-53
2022/04/22 06:54:10;;;;;;;11.93;8.33;;;;;;;9.11;89.36;100672.13;5027087;28;20298;-53
2022/04/22 06:56:40;;;;;;;11.50;6.87;;;;;;;9.23;90.66;100664.34;5026791;28;20371;-53
2022/04/22 06:59:09;;;;;;;9.70;7.07;;;;;;;9.38;89.49;100668.72;5026113;28;20247;-52
2022/04/22 07:01:36;;;;;;;12.20;6.97;;;;;;;9.30;88.95;100670.44;5026546;28;20605;-53
2022/04/22 07:04:02;;;;;;;12.27;6.10;;;;;;;9.31;89.21;100675.69;5025638;28;20698;-53
2022/04/22 07:06:30;;;;;;;12.57;7.50;;;;;;;9.37;88.33;100666.09;5026299;28;20237;-54
2022/04/22 07:08:57;;;;;;;9.90;6.20;;;;;;;9.39;88.92;100669.59;5025854;28;20470;-53
2022/04/22 07:11:25;;;;;;;9.40;6.67;;;;;;;9.33;87.63;100667.84;5027276;28;20233;-53
2022/04/22 07:13:51;;;;;;;10.30;6.33;;;;;;;9.28;87.23;100666.97;5026206;28;20229;-53
2022/04/22 07:16:19;;;;;;;7.27;5.33;;;;;;;9.37;88.16;100671.34;5024636;28;20621;-53
2022/04/22 07:18:46;;;;;;;12.30;6.33;;;;;;;9.42;88.83;100672.25;5025731;28;20286;-53
2022/04/22 07:21:13;;;;;;;9.73;6.07;;;;;;;9.51;87.89;100673.16;5026273;28;20244;-54
2022/04/22 07:23:40;;;;;;;7.60;6.07;;;;;;;9.52;88.97;100674.88;5026367;28;20319;-53
2022/04/22 07:26:09;;;;;;;11.83;7.77;;;;;;;9.46;87.16;100669.63;5024527;28;20572;-53
2022/04/22 07:28:36;;;;;;;14.37;7.17;;;;;;;9.45;86.18;100673.13;5018114;28;20651;-53
2022/04/22 07:31:03;;;;;;;9.67;6.57;;;;;;;9.48;87.08;100661.78;5023261;28;20221;-53
2022/04/22 07:33:31;;;;;;;8.60;6.17;;;;;;;9.52;86.38;100667.03;5008548;28;20244;-55
2022/04/22 07:35:59;;;;;;;9.60;6.17;;;;;;;9.67;86.38;100670.53;5013868;28;20302;-54
2022/04/22 07:38:26;;;;;;;11.07;6.60;;;;;;;9.73;85.86;100673.19;5023717;28;20288;-54
2022/04/22 07:40:53;;;;;;;9.50;6.63;;;;;;;9.80;84.11;100667.94;5021715;28;20253;-54
2022/04/22 07:48:55;;;;;;;9.50;6.10;;;;;;;9.96;84.16;100666.19;5025780;28;20313;-54
2022/04/22 07:51:23;;;;;;;11.03;6.93;;;;;;;9.91;85.18;100669.69;5025757;28;20307;-53
2022/04/22 07:53:49;;;;;;;9.40;6.83;;;;;;;9.86;84.69;100663.56;5025821;28;21477;-53
2022/04/22 07:56:15;;;;;;;12.87;7.87;;;;;;;9.79;85.07;100660.97;5025777;28;20246;-53
2022/04/22 07:58:42;;;;;;;8.43;6.03;;;;;;;9.91;86.19;100664.47;5025226;28;20237;-53
2022/04/22 08:01:08;;;;;;;10.57;6.43;;;;;;;9.99;87.31;100671.44;5025390;28;20609;-53
2022/04/22 08:03:36;;;;;;;11.83;8.13;;;;;;;9.85;86.66;100678.41;5025831;28;20488;-52
2022/04/22 08:06:04;;;;;;;12.50;7.47;;;;;;;9.90;86.80;100681.94;5026539;28;20295;-53
2022/04/22 08:08:30;;;;;;;11.23;8.13;;;;;;;9.80;87.29;100680.19;5025268;28;20248;-54
2022/04/22 08:10:57;;;;;;;8.77;7.07;;;;;;;9.90;87.25;100676.69;5026085;28;20244;-53
2022/04/22 08:13:24;;;;;;;13.23;9.00;;;;;;;9.97;87.39;100681.06;5026668;28;20233;-52
2022/04/22 08:15:51;;;;;;;10.63;8.93;;;;;;;9.93;88.26;100679.31;5025112;28;20236;-52
2022/04/22 08:18:17;;;;;;;13.40;11.10;;;;;;;9.93;88.09;100686.28;5025372;28;20837;-53
2022/04/22 08:20:44;;;;;;;14.03;9.47;;;;;;;9.95;89.24;100679.31;5025682;28;20685;-54
2022/04/22 08:23:12;;;;;;;14.43;9.63;;;;;;;10.05;89.31;100673.19;5037915;28;20675;-53
2022/04/22 08:25:39;;;;;;;12.13;9.20;;;;;;;10.09;90.22;100674.94;5025346;28;20247;-53
2022/04/22 08:28:06;;;;;;;14.03;10.27;;;;;;;10.09;91.01;100671.44;5025984;28;20719;-53
2022/04/22 08:30:35;;;;;;;10.73;8.13;;;;;;;10.17;91.30;100664.44;5025588;28;20232;-53
2022/04/22 08:33:02;;;;;;;11.27;9.10;;;;;;;10.25;91.88;100667.97;5025593;28;20302;-52
2022/04/22 08:35:28;;;;;;;10.10;8.73;;;;;;;10.30;91.55;100663.59;5025125;28;20738;-54
2022/04/22 08:37:55;;;;;;;11.03;9.63;;;;;;;10.25;92.17;100665.34;5025012;28;20647;-54
2022/04/22 08:40:23;;;;;;;12.60;9.77;;;;;;;10.25;91.48;100661.00;5024837;28;20602;-54
2022/04/22 08:42:49;;;;;;;8.93;8.03;;;;;;;10.37;91.23;100662.72;5025756;28;20236;-54
2022/04/22 08:45:16;;;;;;;11.60;9.40;;;;;;;10.41;90.12;100658.34;5025677;28;20319;-54
2022/04/22 08:50:27;;;;;;;12.63;10.40;;;;;;;10.56;89.18;100657.41;5024178;28;20378;-54
2022/04/22 08:52:57;;;;;;;14.13;10.73;;;;;;;10.43;89.53;100656.59;5025713;28;20302;-54
2022/04/22 08:55:25;;;;;;;13.00;11.43;;;;;;;10.53;89.87;100658.34;5025264;28;20484;-53
2022/04/22 08:57:55;;;;;;;21.17;10.67;;;;;;;10.57;89.16;100659.19;5026344;28;20287;-53
2022/04/22 09:00:23;;;;;;;13.23;9.87;;;;;;;10.65;89.51;100653.03;5028113;28;20239;-54
2022/04/22 09:02:49;;;;;;;12.87;10.30;;;;;;;10.56;89.00;100653.03;5028557;28;20732;-53
2022/04/22 09:05:16;;;;;;;11.43;10.03;;;;;;;10.63;89.22;100643.41;5029019;28;20236;-53
2022/04/22 09:07:43;;;;;;;14.00;9.63;;;;;;;10.80;88.53;100646.84;5029364;28;20283;-53
2022/04/22 09:10:10;;;;;;;12.27;10.97;;;;;;;10.93;87.89;100638.06;5028230;28;20232;-53
2022/04/22 09:12:38;;;;;;;10.63;9.33;;;;;;;11.06;87.23;100640.66;5029078;28;20237;-54
2022/04/22 09:15:06;;;;;;;17.10;10.07;;;;;;;11.14;86.34;100644.09;5028226;28;20228;-53
2022/04/22 09:17:34;;;;;;;10.80;9.70;;;;;;;11.27;86.38;100643.16;5028432;28;20636;-54
2022/04/22 09:20:03;;;;;;;11.07;9.87;;;;;;;11.32;85.92;100648.38;5026445;28;20789;-53
2022/04/22 09:22:34;;;;;;;14.63;10.80;;;;;;;11.09;86.08;100644.13;5012975;28;20287;-53
2022/04/22 09:25:01;;;;;;;11.07;9.93;;;;;;;11.13;86.91;100639.75;5008494;28;20244;-53
2022/04/22 09:27:32;;;;;;;16.60;11.60;;;;;;;11.02;88.21;100639.78;5009353;28;20299;-53
2022/04/22 09:30:00;;;;;;;14.57;9.10;;;;;;;11.08;88.07;100642.38;5025134;28;20234;-53
2022/04/22 09:32:28;;;;;;;14.37;12.87;;;;;;;10.84;89.56;100635.47;5026180;28;20699;-54
2022/04/22 09:34:57;;;;;;;10.93;9.73;;;;;;;10.95;89.79;100641.56;5029003;28;20240;-53
2022/04/22 09:43:14;;;;;;;15.23;11.23;;;;;;;11.07;92.30;100645.00;5026208;28;20286;-54
2022/04/22 09:45:41;;;;;;;14.83;10.77;;;;;;;11.18;91.60;100644.06;5020536;28;20741;-54
2022/04/22 09:48:15;;;;;;;16.13;9.53;;;;;;;11.14;92.51;100636.22;5028189;28;20232;-54
2022/04/22 09:50:43;;;;;;;15.20;10.10;;;;;;;11.14;93.28;100637.09;5027636;28;20330;-54
2022/04/22 09:53:11;;;;;;;12.97;10.93;;;;;;;11.23;93.92;100636.16;5028100;28;20294;-54
2022/04/22 09:55:52;;;;;;;18.13;12.27;;;;;;;11.10;93.85;100639.75;5027778;28;20730;-53
2022/04/22 09:58:23;;;;;;;14.33;12.20;;;;;;;11.07;96.72;100645.00;5027298;28;20282;-54
2022/04/22 10:01:00;;;;;;;13.63;11.57;;;;;;;11.17;97.01;100637.06;5028248;28;20228;-54
2022/04/22 10:03:28;;;;;;;15.33;11.93;;;;;;;11.43;98.48;100642.19;5027255;28;20615;-54
2022/04/22 10:05:56;;;;;;;13.67;10.80;;;;;;;11.39;94.94;100643.09;5027781;28;20240;-54
2022/04/22 10:08:23;;;;;;;14.13;11.27;;;;;;;11.40;97.19;100639.56;5027086;28;20263;-53
2022/04/22 10:10:52;;;;;;;13.80;12.00;;;;;;;11.47;97.25;100636.00;5026994;28;20225;-54
2022/04/22 10:13:21;;;;;;;15.40;12.25;;;;;;;11.42;97.56;100632.56;5027011;28;20479;-54
2022/04/22 10:15:48;;;;;;;14.10;12.33;;;;;;;11.40;98.25;100631.69;5024962;28;20316;-53
2022/04/22 10:18:16;;;;;;;13.60;11.63;;;;;;;11.40;97.98;100629.03;5023993;28;20251;-54
2022/04/22 10:20:43;;;;;;;18.30;13.33;;;;;;;11.40;98.92;100629.03;5007348;28;20245;-54
2022/04/22 10:23:10;;;;;;;17.33;13.27;;;;;;;11.44;97.50;100615.03;5011162;28;20241;-54
2022/04/22 10:25:36;;;;;;;18.10;14.53;;;;;;;11.45;98.47;100619.41;5027387;28;20286;-54
2022/04/22 10:28:05;;;;;;;16.23;14.60;;;;;;;11.41;98.87;100619.44;5027057;28;20252;-54
2022/04/22 10:30:32;;;;;;;17.83;14.70;;;;;;;11.33;98.78;100629.97;5026347;28;20676;-52
2022/04/22 10:32:59;;;;;;;19.00;14.27;;;;;;;11.35;99.07;100625.59;5027750;28;20262;-53
2022/04/22 10:35:27;;;;;;;16.83;15.13;;;;;;;11.29;99.65;100622.13;5027400;28;20298;-54
2022/04/22 10:37:54;;;;;;;17.07;14.20;;;;;;;11.36;99.51;100613.31;5027327;28;20240;-54
2022/04/22 10:40:22;;;;;;;16.67;13.80;;;;;;;11.40;98.74;100620.28;5006676;28;20233;-54
2022/04/22 10:42:50;;;;;;;17.27;14.73;;;;;;;11.47;99.36;100614.97;5006980;28;20233;-54
2022/04/22 10:48:06;;;;;;;16.10;14.50;;;;;;;11.73;98.51;100607.81;5026948;28;20239;-53
2022/04/22 10:50:37;;;;;;;17.27;15.43;;;;;;;11.70;98.79;100604.31;5026208;28;20631;-54
2022/04/22 10:53:05;;;;;;;17.47;15.67;;;;;;;11.79;98.38;100590.19;5026984;28;20555;-54
2022/04/22 10:55:33;;;;;;;16.57;14.90;;;;;;;11.79;97.92;100590.19;5026562;28;20237;-54
2022/04/22 10:58:23;;;;;;;17.43;15.73;;;;;;;11.77;97.87;100604.28;5026748;28;20236;-54
2022/04/22 11:00:50;;;;;;;17.90;16.00;;;;;;;11.69;97.41;100606.97;5026526;28;20233;-53
2022/04/22 11:03:18;;;;;;;16.03;14.23;;;;;;;11.70;97.12;100609.56;5026605;28;20252;-53
2022/04/22 11:05:50;;;;;;;17.83;14.90;;;;;;;11.74;96.81;100599.91;5026274;28;20244;-53
2022/04/22 11:08:24;;;;;;;17.73;15.73;;;;;;;11.78;96.03;100604.25;5026458;28;20760;-53
2022/04/22 11:11:08;;;;;;;16.83;15.13;;;;;;;11.85;95.38;100611.22;5026013;28;20235;-53
2022/04/22 11:13:40;;;;;;;17.50;15.27;;;;;;;11.87;95.41;100604.22;5026315;28;20652;-53
2022/04/22 11:16:07;;;;;;;15.93;14.37;;;;;;;11.96;94.97;100605.00;5025944;28;20240;-54
2022/04/22 11:18:34;;;;;;;17.55;15.20;;;;;;;12.03;93.64;100596.19;5025539;28;20232;-54
2022/04/22 11:21:04;;;;;;;15.93;14.33;;;;;;;12.04;93.55;100600.53;5025965;28;20228;-54
2022/04/22 11:23:38;;;;;;;18.33;16.37;;;;;;;11.98;93.40;100598.00;5025670;28;20290;-54
2022/04/22 11:26:05;;;;;;;19.60;17.60;;;;;;;12.04;92.77;100595.28;4987968;28;20233;-54
2022/04/22 11:28:34;;;;;;;18.13;16.23;;;;;;;12.01;92.68;100596.19;5005470;28;20806;-53
2022/04/22 11:31:03;;;;;;;18.38;14.65;;;;;;;11.96;92.25;100595.34;5010299;28;20241;-53
2022/04/22 11:33:35;;;;;;;19.40;17.43;;;;;;;11.97;92.55;100598.84;5024815;28;20753;-54
2022/04/22 11:36:06;;;;;;;18.10;16.40;;;;;;;11.91;92.67;100602.44;5024848;28;20238;-54
2022/04/22 11:38:33;;;;;;;20.80;18.60;;;;;;;11.91;92.62;100600.66;5024973;28;20225;-54
2022/04/22 11:41:00;;;;;;;21.00;17.53;;;;;;;11.83;92.68;100606.81;5025754;28;20240;-54
2022/04/22 11:43:29;;;;;;;19.50;17.50;;;;;;;11.76;93.96;100611.28;5025165;28;20334;-53
2022/04/22 11:45:55;;;;;;;20.33;18.37;;;;;;;11.76;93.41;100610.41;5025872;28;20241;-52
2022/04/22 11:48:23;;;;;;;19.10;17.07;;;;;;;11.75;93.64;100613.91;5024993;28;20651;-53
2022/04/22 11:50:50;;;;;;;21.00;18.67;;;;;;;11.85;94.18;100616.50;5025666;28;20234;-53
2022/04/22 11:53:19;;;;;;;21.50;19.37;;;;;;;11.81;93.89;100614.75;5025871;28;20289;-54
2022/04/22 11:55:47;;;;;;;22.53;20.23;;;;;;;11.73;94.05;100613.06;5025978;28;20660;-53
2022/04/22 11:58:16;;;;;;;23.37;20.97;;;;;;;11.75;94.23;100624.44;5025320;28;20660;-54
2022/04/22 12:06:14;;;;;;;28.33;24.10;;;;;;;11.62;94.80;100635.06;5025872;28;20662;-53
2022/04/22 12:08:52;;;;;;;25.30;20.60;;;;;;;11.57;95.24;100628.06;5018635;28;20240;-53
2022/04/22 12:11:18;;;;;;;24.17;21.10;;;;;;;11.67;95.10;100628.00;5024636;28;20228;-53
2022/04/22 12:13:45;;;;;;;27.27;24.23;;;;;;;11.65;96.02;100637.69;5025292;28;20264;-54
2022/04/22 12:16:12;;;;;;;26.93;24.03;;;;;;;11.57;97.19;100643.84;5029151;28;20801;-53
2022/04/22 12:18:40;;;;;;;26.70;22.40;;;;;;;11.42;98.20;100631.69;5023774;28;20232;-54
2022/04/22 12:21:07;;;;;;;26.83;23.43;;;;;;;11.52;97.76;100633.38;5024102;28;20285;-54
2022/04/22 12:23:35;;;;;;;25.10;22.43;;;;;;;11.48;98.37;100636.91;5024021;28;20359;-53
2022/04/22 12:26:03;;;;;;;26.40;23.60;;;;;;;11.52;97.57;100632.50;5024637;28;20776;-54
2022/04/22 12:28:30;;;;;;;25.23;22.60;;;;;;;11.58;97.68;100627.19;5024053;28;20662;-53